createdAt,value
2022-12-22T00:00:16.476Z,2.10
2022-12-22T00:03:01.604Z,2.38
2022-12-22T00:05:46.624Z,2.83
2022-12-22T00:08:31.505Z,2.55
2022-12-22T00:11:19.014Z,2.40
2022-12-22T00:14:05.011Z,2.60
2022-12-22T00:16:52.936Z,2.60
2022-12-22T00:19:38.331Z,2.60
2022-12-22T00:22:49.702Z,2.60
2022-12-22T00:25:36.133Z,2.40
2022-12-22T00:28:32.020Z,2.40
2022-12-22T00:31:17.012Z,2.95
2022-12-22T00:34:02.087Z,3.63
2022-12-22T00:36:47.444Z,3.05
2022-12-22T00:39:32.441Z,2.88
2022-12-22T00:42:17.626Z,3.15
2022-12-22T00:45:02.402Z,2.95
2022-12-22T00:47:48.964Z,3.15
2022-12-22T00:50:34.470Z,3.60
2022-12-22T00:53:21.285Z,3.30
2022-12-22T00:56:06.597Z,3.10
2022-12-22T00:58:52.562Z,3.17
2022-12-22T01:01:37.486Z,3.65
2022-12-22T01:04:22.490Z,2.92
2022-12-22T01:07:07.554Z,3.67
2022-12-22T01:09:52.699Z,2.80
2022-12-22T01:12:43.029Z,2.90
2022-12-22T01:15:34.044Z,3.25
2022-12-22T01:18:19.316Z,2.70
2022-12-22T01:21:04.497Z,2.88
2022-12-22T01:23:49.530Z,3.05
2022-12-22T01:26:34.725Z,3.40
2022-12-22T01:29:19.399Z,3.50
2022-12-22T01:32:04.459Z,3.30
2022-12-22T01:34:49.506Z,3.00
2022-12-22T01:37:34.388Z,2.42
2022-12-22T01:40:19.448Z,2.58
2022-12-22T01:43:04.466Z,2.97
2022-12-22T01:45:52.542Z,3.38
2022-12-22T01:48:39.518Z,3.63
2022-12-22T01:51:30.015Z,3.15
2022-12-22T01:54:16.776Z,3.08
2022-12-22T01:57:03.458Z,2.88
2022-12-22T01:59:48.518Z,3.40
2022-12-22T02:02:35.570Z,2.90
2022-12-22T02:05:23.180Z,3.10
2022-12-22T02:08:22.447Z,3.35
2022-12-22T02:11:31.879Z,3.08
2022-12-22T02:14:40.224Z,2.60
2022-12-22T02:17:39.659Z,2.92
2022-12-22T02:20:42.279Z,2.85
2022-12-22T02:24:11.427Z,3.03
2022-12-22T02:27:01.121Z,2.63
2022-12-22T02:30:24.291Z,2.90
2022-12-22T02:33:10.325Z,3.05
2022-12-22T02:36:17.207Z,2.70
2022-12-22T02:39:14.453Z,3.15
2022-12-22T02:42:08.538Z,3.03
2022-12-22T02:45:22.727Z,3.28
2022-12-22T02:48:18.249Z,3.33
2022-12-22T02:51:13.908Z,3.22
2022-12-22T02:53:59.443Z,3.15
2022-12-22T02:56:44.693Z,3.33
2022-12-22T02:59:29.783Z,3.30
2022-12-22T03:02:15.069Z,3.13
2022-12-22T03:05:00.288Z,2.80
2022-12-22T03:07:45.296Z,3.20
2022-12-22T03:10:30.479Z,2.80
2022-12-22T03:13:18.853Z,3.47
2022-12-22T03:16:04.053Z,2.75
2022-12-22T03:18:49.257Z,2.97
2022-12-22T03:21:34.800Z,2.83
2022-12-22T03:24:19.846Z,2.90
2022-12-22T03:26:46.194Z,3.03
2022-12-22T03:29:12.602Z,2.55
2022-12-22T03:31:38.921Z,2.60
2022-12-22T03:34:05.372Z,2.78
2022-12-22T03:36:31.775Z,2.80
2022-12-22T03:38:58.086Z,2.95
2022-12-22T03:41:43.263Z,2.53
2022-12-22T03:44:28.409Z,2.40
2022-12-22T03:46:54.842Z,2.40
2022-12-22T03:49:22.876Z,2.45
2022-12-22T03:51:51.515Z,2.33
2022-12-22T03:54:23.881Z,2.40
2022-12-22T03:56:50.965Z,2.45
2022-12-22T03:59:18.841Z,2.60
2022-12-22T04:01:48.737Z,2.60
2022-12-22T04:04:16.281Z,3.58
2022-12-22T04:06:43.395Z,2.97
2022-12-22T04:09:09.764Z,2.33
2022-12-22T04:11:54.835Z,3.58
2022-12-22T04:14:21.949Z,2.50
2022-12-22T04:16:49.312Z,2.28
2022-12-22T04:19:16.490Z,2.55
2022-12-22T04:21:43.758Z,2.90
2022-12-22T04:24:12.197Z,2.67
2022-12-22T04:26:39.003Z,2.55
2022-12-22T04:29:05.523Z,2.30
2022-12-22T04:31:32.002Z,2.58
2022-12-22T04:33:58.458Z,2.58
2022-12-22T04:36:24.894Z,2.40
2022-12-22T04:38:51.268Z,2.10
2022-12-22T04:41:17.579Z,2.45
2022-12-22T04:43:43.912Z,2.20
2022-12-22T04:46:10.385Z,2.00
2022-12-22T04:48:36.897Z,2.65
2022-12-22T04:51:04.114Z,1.95
2022-12-22T04:53:31.181Z,2.00
2022-12-22T04:56:01.003Z,2.00
2022-12-22T04:58:28.084Z,2.58
2022-12-22T05:00:54.801Z,2.78
2022-12-22T05:03:22.126Z,2.40
2022-12-22T05:05:48.569Z,2.50
2022-12-22T05:08:15.101Z,3.05
2022-12-22T05:10:41.559Z,2.58
2022-12-22T05:13:07.862Z,2.58
2022-12-22T05:15:36.370Z,2.35
2022-12-22T05:18:03.381Z,2.00
2022-12-22T05:20:30.003Z,1.98
2022-12-22T05:22:56.445Z,1.90
2022-12-22T05:25:22.812Z,1.90
2022-12-22T05:27:50.459Z,2.00
2022-12-22T05:30:18.496Z,2.17
2022-12-22T05:32:44.954Z,2.25
2022-12-22T05:35:11.779Z,1.95
2022-12-22T05:37:38.204Z,2.42
2022-12-22T05:40:07.451Z,1.77
2022-12-22T05:42:36.771Z,2.40
2022-12-22T05:47:30.909Z,2.00
2022-12-22T05:49:57.283Z,1.95
2022-12-22T05:52:23.690Z,1.95
2022-12-22T05:54:50.035Z,1.92
2022-12-22T05:57:16.848Z,1.88
2022-12-22T05:59:43.277Z,1.70
2022-12-22T06:02:09.670Z,2.00
2022-12-22T06:04:36.459Z,1.63
2022-12-22T06:07:02.785Z,1.67
2022-12-22T06:09:29.105Z,2.10
2022-12-22T06:11:55.497Z,1.98
2022-12-22T06:14:29.541Z,1.88
2022-12-22T06:16:55.831Z,1.63
2022-12-22T06:19:22.271Z,2.13
2022-12-22T06:21:51.726Z,1.80
2022-12-22T06:24:18.105Z,1.60
2022-12-22T06:26:44.500Z,2.15
2022-12-22T06:29:11.599Z,2.00
2022-12-22T06:31:38.792Z,1.90
2022-12-22T06:34:05.619Z,2.03
2022-12-22T06:36:32.036Z,2.15
2022-12-22T06:38:58.373Z,1.70
2022-12-22T06:41:43.590Z,1.95
2022-12-22T06:44:10.102Z,1.83
2022-12-22T06:46:36.481Z,2.15
2022-12-22T06:49:03.164Z,1.75
2022-12-22T06:51:29.451Z,1.92
2022-12-22T06:53:55.839Z,2.05
2022-12-22T06:56:22.146Z,1.75
2022-12-22T06:58:48.446Z,2.30
2022-12-22T07:01:17.596Z,2.53
2022-12-22T07:03:44.161Z,1.95
2022-12-22T07:06:25.063Z,1.73
2022-12-22T07:08:51.898Z,2.22
2022-12-22T07:11:24.337Z,2.15
2022-12-22T07:13:56.844Z,2.42
2022-12-22T07:16:23.282Z,2.15
2022-12-22T07:18:49.591Z,2.25
2022-12-22T07:21:15.933Z,1.90
2022-12-22T07:23:44.992Z,2.15
2022-12-22T07:26:12.713Z,2.42
2022-12-22T07:28:41.195Z,1.58
2022-12-22T07:31:09.431Z,1.58
2022-12-22T07:33:36.072Z,2.10
2022-12-22T07:36:04.282Z,2.42
2022-12-22T07:38:35.587Z,2.08
2022-12-22T07:41:05.242Z,1.80
2022-12-22T07:43:32.094Z,2.03
2022-12-22T07:45:58.389Z,1.85
2022-12-22T07:48:43.100Z,1.70
2022-12-22T07:51:09.523Z,1.50
2022-12-22T07:53:35.938Z,2.85
2022-12-22T07:56:04.350Z,1.90
2022-12-22T07:58:31.051Z,1.90
2022-12-22T08:01:01.327Z,1.88
2022-12-22T08:03:28.252Z,1.45
2022-12-22T08:05:54.756Z,2.50
2022-12-22T08:08:21.180Z,1.92
2022-12-22T08:10:47.538Z,1.98
2022-12-22T08:13:13.955Z,1.80
2022-12-22T08:15:40.698Z,1.67
2022-12-22T08:18:06.999Z,1.95
2022-12-22T08:20:33.391Z,1.40
2022-12-22T08:22:59.697Z,2.00
2022-12-22T08:25:26.192Z,1.95
2022-12-22T08:27:56.242Z,1.58
2022-12-22T08:30:22.712Z,1.70
2022-12-22T08:32:54.169Z,1.70
2022-12-22T08:35:22.936Z,2.05
2022-12-22T08:37:49.739Z,1.67
2022-12-22T08:40:21.182Z,1.63
2022-12-22T08:42:50.027Z,2.00
2022-12-22T08:45:16.476Z,2.33
2022-12-22T08:47:46.195Z,1.73
2022-12-22T08:50:12.739Z,2.17
2022-12-22T08:52:39.413Z,1.95
2022-12-22T08:55:08.560Z,1.80
2022-12-22T08:57:35.583Z,2.10
2022-12-22T09:00:02.292Z,2.28
2022-12-22T09:02:32.969Z,2.35
2022-12-22T09:04:59.320Z,1.90
2022-12-22T09:07:25.952Z,2.15
2022-12-22T09:09:52.326Z,2.20
2022-12-22T09:12:18.744Z,2.45
2022-12-22T09:14:45.261Z,2.17
2022-12-22T09:17:11.777Z,2.33
2022-12-22T09:19:38.109Z,1.95
2022-12-22T09:22:04.569Z,2.67
2022-12-22T09:24:30.921Z,1.92
2022-12-22T09:26:57.199Z,2.42
2022-12-22T09:29:23.584Z,2.67
2022-12-22T09:31:50.141Z,2.33
2022-12-22T09:34:18.365Z,2.28
2022-12-22T09:36:45.998Z,2.25
2022-12-22T09:39:12.617Z,2.10
2022-12-22T09:41:47.121Z,2.70
2022-12-22T09:44:23.691Z,2.25
2022-12-22T09:46:52.098Z,2.08
2022-12-22T09:49:19.651Z,2.55
2022-12-22T09:51:54.139Z,2.10
2022-12-22T09:54:21.235Z,1.75
2022-12-22T09:56:47.706Z,1.67
2022-12-22T09:59:16.485Z,2.28
2022-12-22T10:02:00.948Z,1.67
2022-12-22T10:04:41.383Z,1.90
2022-12-22T10:07:22.654Z,2.00
2022-12-22T10:09:51.140Z,1.75
2022-12-22T10:12:23.789Z,2.00
2022-12-22T10:14:52.367Z,1.33
2022-12-22T10:17:24.327Z,1.63
2022-12-22T10:19:54.502Z,1.10
2022-12-22T10:22:34.891Z,1.20
2022-12-22T10:25:04.043Z,1.42
2022-12-22T10:30:27.561Z,1.23
2022-12-22T10:33:18.005Z,0.98
2022-12-22T10:35:54.659Z,1.05
2022-12-22T10:38:28.548Z,0.75
2022-12-22T10:41:02.597Z,0.85
2022-12-22T10:43:38.009Z,0.90
2022-12-22T10:46:05.731Z,1.20
2022-12-22T10:48:38.187Z,0.90
2022-12-22T10:51:07.855Z,1.00
2022-12-22T10:53:46.064Z,0.77
2022-12-22T10:56:30.636Z,0.93
2022-12-22T10:59:13.651Z,0.82
2022-12-22T11:01:40.170Z,0.93
2022-12-22T11:04:22.075Z,0.90
2022-12-22T11:06:48.687Z,0.80
2022-12-22T11:09:33.166Z,1.05
2022-12-22T11:12:13.321Z,0.90
2022-12-22T11:14:57.950Z,0.80
2022-12-22T11:18:03.452Z,0.98
2022-12-22T11:20:48.441Z,0.98
2022-12-22T11:23:26.715Z,0.90
2022-12-22T11:26:11.336Z,0.80
2022-12-22T11:29:19.142Z,0.95
2022-12-22T11:32:02.367Z,1.00
2022-12-22T11:34:57.144Z,1.08
2022-12-22T11:37:44.849Z,0.98
2022-12-22T11:40:37.225Z,1.20
2022-12-22T11:43:18.505Z,1.02
2022-12-22T11:46:14.975Z,1.25
2022-12-22T11:49:05.212Z,0.90
2022-12-22T11:51:37.871Z,0.80
2022-12-22T11:54:45.795Z,1.25
2022-12-22T11:57:25.868Z,0.88
2022-12-22T12:00:11.678Z,0.90
2022-12-22T12:02:57.282Z,0.85
2022-12-22T12:05:40.507Z,0.85
2022-12-22T12:08:45.748Z,0.90
2022-12-22T12:11:23.656Z,0.90
2022-12-22T12:14:05.330Z,0.70
2022-12-22T12:16:47.003Z,1.10
2022-12-22T12:19:44.080Z,1.00
2022-12-22T12:22:39.363Z,0.90
2022-12-22T12:25:44.766Z,0.80
2022-12-22T12:28:46.285Z,0.75
2022-12-22T12:31:20.113Z,0.85
2022-12-22T12:33:59.542Z,0.68
2022-12-22T12:36:52.664Z,0.85
2022-12-22T12:39:24.176Z,0.88
2022-12-22T12:42:09.583Z,0.57
2022-12-22T12:44:38.402Z,0.75
2022-12-22T12:47:10.246Z,0.98
2022-12-22T12:49:39.301Z,0.90
2022-12-22T12:52:12.241Z,0.77
2022-12-22T12:54:41.962Z,0.85
2022-12-22T12:57:26.671Z,1.05
2022-12-22T12:59:58.511Z,0.98
2022-12-22T13:02:28.479Z,0.90
2022-12-22T13:05:28.000Z,0.80
2022-12-22T13:08:16.216Z,1.02
2022-12-22T13:11:37.917Z,1.02
2022-12-22T13:14:04.738Z,0.90
2022-12-22T13:16:34.892Z,0.90
2022-12-22T13:19:04.907Z,0.90
2022-12-22T13:21:57.956Z,0.90
2022-12-22T13:24:29.084Z,0.90
2022-12-22T13:27:14.771Z,0.70
2022-12-22T13:29:47.120Z,0.85
2022-12-22T13:32:22.561Z,0.95
2022-12-22T13:35:29.814Z,1.05
2022-12-22T13:37:50.126Z,1.20
2022-12-22T13:40:21.333Z,1.00
2022-12-22T13:43:02.635Z,1.00
2022-12-22T13:45:31.533Z,1.10
2022-12-22T13:48:00.717Z,0.93
2022-12-22T13:52:58.091Z,1.08
2022-12-22T13:55:28.843Z,0.82
2022-12-22T13:58:00.606Z,0.70
2022-12-22T14:00:29.502Z,1.08
2022-12-22T14:02:55.957Z,1.35
2022-12-22T14:05:22.485Z,1.10
2022-12-22T14:08:04.022Z,0.82
2022-12-22T14:10:39.550Z,0.98
2022-12-22T14:13:13.937Z,0.90
2022-12-22T14:15:40.392Z,0.68
2022-12-22T14:18:06.956Z,1.00
2022-12-22T14:20:37.958Z,0.80
2022-12-22T14:23:21.605Z,1.48
2022-12-22T14:25:50.226Z,1.10
2022-12-22T14:28:24.848Z,0.88
2022-12-22T14:30:54.787Z,0.80
2022-12-22T14:33:26.153Z,0.80
2022-12-22T14:36:15.444Z,0.90
2022-12-22T14:38:44.870Z,1.33
2022-12-22T14:41:37.392Z,1.15
2022-12-22T14:44:04.598Z,1.25
2022-12-22T14:46:38.432Z,1.10
2022-12-22T14:49:05.471Z,1.35
2022-12-22T14:51:33.942Z,1.40
2022-12-22T14:54:02.850Z,1.50
2022-12-22T14:56:29.330Z,1.10
2022-12-22T14:59:23.116Z,1.17
2022-12-22T15:02:04.511Z,1.25
2022-12-22T15:04:31.208Z,1.35
2022-12-22T15:07:06.425Z,1.30
2022-12-22T15:10:13.304Z,1.15
2022-12-22T15:12:19.875Z,1.30
2022-12-22T15:14:48.593Z,1.00
2022-12-22T15:17:23.006Z,1.23
2022-12-22T15:19:51.604Z,1.55
2022-12-22T15:22:17.925Z,1.33
2022-12-22T15:24:44.267Z,1.20
2022-12-22T15:27:10.707Z,1.73
2022-12-22T15:29:37.057Z,1.75
2022-12-22T15:32:21.682Z,1.45
2022-12-22T15:34:47.985Z,1.30
2022-12-22T15:37:14.440Z,1.10
2022-12-22T15:39:41.014Z,1.58
2022-12-22T15:42:07.360Z,1.40
2022-12-22T15:44:38.510Z,1.30
2022-12-22T15:47:11.554Z,1.52
2022-12-22T15:49:38.420Z,1.63
2022-12-22T15:52:06.667Z,1.88
2022-12-22T15:54:33.613Z,1.52
2022-12-22T15:57:01.002Z,1.30
2022-12-22T15:59:29.010Z,1.77
2022-12-22T16:02:01.321Z,1.55
2022-12-22T16:04:29.120Z,2.17
2022-12-22T16:06:56.216Z,2.00
2022-12-22T16:09:32.343Z,2.65
2022-12-22T16:11:58.688Z,3.33
2022-12-22T16:14:25.185Z,2.83
2022-12-22T16:16:51.522Z,4.22
2022-12-22T16:19:19.294Z,3.50
2022-12-22T16:21:48.512Z,2.75
2022-12-22T16:24:29.677Z,3.05
2022-12-22T16:26:56.996Z,2.95
2022-12-22T16:29:24.328Z,3.03
2022-12-22T16:31:51.000Z,2.83
2022-12-22T16:34:17.463Z,2.70
2022-12-22T16:36:43.768Z,2.53
2022-12-22T16:39:10.124Z,2.92
2022-12-22T16:41:36.777Z,2.90
2022-12-22T16:46:52.536Z,2.75
2022-12-22T16:49:26.350Z,3.63
2022-12-22T16:51:54.803Z,3.38
2022-12-22T16:54:21.209Z,3.60
2022-12-22T16:56:50.622Z,3.95
2022-12-22T16:59:18.153Z,3.92
2022-12-22T17:01:54.628Z,3.60
2022-12-22T17:04:32.160Z,3.92
2022-12-22T17:07:00.752Z,4.28
2022-12-22T17:09:38.649Z,4.18
2022-12-22T17:12:07.128Z,4.22
2022-12-22T17:14:37.074Z,4.05
2022-12-22T17:17:05.705Z,4.60
2022-12-22T17:19:32.243Z,4.22
2022-12-22T17:21:58.989Z,4.00
2022-12-22T17:24:28.903Z,4.63
2022-12-22T17:27:01.004Z,4.75
2022-12-22T17:29:28.260Z,4.47
2022-12-22T17:31:56.785Z,4.45
2022-12-22T17:34:23.821Z,4.85
2022-12-22T17:36:50.778Z,4.30
2022-12-22T17:39:19.837Z,5.25
2022-12-22T17:41:52.072Z,5.22
2022-12-22T17:44:23.809Z,4.95
2022-12-22T17:46:50.241Z,4.53
2022-12-22T17:49:19.656Z,5.78
2022-12-22T17:51:46.184Z,5.57
2022-12-22T17:54:26.976Z,5.50
2022-12-22T17:56:59.410Z,5.85
2022-12-22T17:59:25.716Z,5.72
2022-12-22T18:01:52.136Z,6.25
2022-12-22T18:04:18.593Z,6.90
2022-12-22T18:06:45.579Z,5.95
2022-12-22T18:09:20.729Z,4.63
2022-12-22T18:11:50.984Z,4.57
2022-12-22T18:14:18.382Z,4.63
2022-12-22T18:16:44.788Z,4.93
2022-12-22T18:19:11.750Z,5.40
2022-12-22T18:21:38.590Z,5.68
2022-12-22T18:24:05.593Z,5.10
2022-12-22T18:26:32.063Z,5.30
2022-12-22T18:28:59.661Z,4.82
2022-12-22T18:31:26.170Z,4.57
2022-12-22T18:33:52.848Z,6.13
2022-12-22T18:36:31.679Z,5.78
2022-12-22T18:39:00.606Z,5.47
2022-12-22T18:41:29.292Z,4.28
2022-12-22T18:43:55.647Z,4.68
2022-12-22T18:46:22.051Z,5.38
2022-12-22T18:48:48.629Z,4.80
2022-12-22T18:51:27.244Z,4.75
2022-12-22T18:53:54.670Z,4.63
2022-12-22T18:56:21.265Z,4.65
2022-12-22T18:58:47.748Z,4.60
2022-12-22T19:01:27.234Z,4.68
2022-12-22T19:03:56.476Z,5.00
2022-12-22T19:06:23.494Z,5.55
2022-12-22T19:08:50.379Z,5.28
2022-12-22T19:11:21.183Z,4.72
2022-12-22T19:13:50.901Z,4.38
2022-12-22T19:16:20.740Z,4.28
2022-12-22T19:18:47.131Z,4.72
2022-12-22T19:21:18.308Z,4.53
2022-12-22T19:23:45.553Z,4.43
2022-12-22T19:26:21.602Z,6.75
2022-12-22T19:28:50.896Z,5.28
2022-12-22T19:33:52.587Z,5.95
2022-12-22T19:36:27.818Z,4.75
2022-12-22T19:39:02.576Z,4.57
2022-12-22T19:41:43.745Z,4.47
2022-12-22T19:44:26.542Z,5.50
2022-12-22T19:46:54.594Z,4.53
2022-12-22T19:49:23.013Z,5.10
2022-12-22T19:51:49.855Z,4.82
2022-12-22T19:54:19.378Z,4.32
2022-12-22T19:56:50.063Z,4.57
2022-12-22T19:59:29.599Z,4.10
2022-12-22T20:01:59.289Z,4.60
2022-12-22T20:04:25.919Z,4.35
2022-12-22T20:06:52.222Z,5.40
2022-12-22T20:09:18.528Z,4.78
2022-12-22T20:11:44.978Z,5.00
2022-12-22T20:14:20.383Z,4.60
2022-12-22T20:16:46.865Z,4.50
2022-12-22T20:19:14.372Z,4.70
2022-12-22T20:21:41.623Z,3.95
2022-12-22T20:24:10.402Z,4.32
2022-12-22T20:26:39.741Z,4.50
2022-12-22T20:31:32.436Z,4.20
2022-12-22T20:34:01.019Z,3.78
2022-12-22T20:36:31.658Z,4.28
2022-12-22T20:39:01.144Z,4.38
2022-12-22T20:41:28.025Z,3.80
2022-12-22T20:43:54.585Z,4.38
2022-12-22T20:46:25.653Z,3.88
2022-12-22T20:48:55.996Z,4.18
2022-12-22T20:51:24.199Z,3.72
2022-12-22T20:53:51.971Z,4.43
2022-12-22T20:56:47.770Z,4.00
2022-12-22T20:59:18.389Z,3.78
2022-12-22T21:01:46.688Z,4.75
2022-12-22T21:04:14.880Z,3.63
2022-12-22T21:06:53.059Z,3.83
2022-12-22T21:09:19.827Z,3.30
2022-12-22T21:11:46.650Z,4.05
2022-12-22T21:14:13.367Z,3.28
2022-12-22T21:16:41.760Z,4.28
2022-12-22T21:19:11.098Z,5.60
2022-12-22T21:21:37.456Z,4.00
2022-12-22T21:24:06.967Z,4.05
2022-12-22T21:29:08.110Z,3.72
2022-12-22T21:31:59.255Z,3.60
2022-12-22T21:34:28.259Z,3.63
2022-12-22T21:37:06.044Z,3.92
2022-12-22T21:39:47.958Z,4.05
2022-12-22T21:42:18.650Z,3.85
2022-12-22T21:44:46.449Z,4.00
2022-12-22T21:47:19.625Z,3.40
2022-12-22T21:49:49.177Z,3.97
2022-12-22T21:52:16.097Z,3.58
2022-12-22T21:54:42.512Z,3.55
2022-12-22T21:57:15.652Z,2.85
2022-12-22T21:59:42.505Z,3.58
2022-12-22T22:02:19.423Z,3.78
2022-12-22T22:04:53.721Z,3.28
2022-12-22T22:07:22.525Z,3.40
2022-12-22T22:09:51.827Z,3.97
2022-12-22T22:12:34.106Z,3.15
2022-12-22T22:15:02.335Z,3.42
2022-12-22T22:17:29.166Z,3.60
2022-12-22T22:20:01.797Z,3.17
2022-12-22T22:22:28.458Z,3.53
2022-12-22T22:24:55.683Z,3.55
2022-12-22T22:27:22.955Z,3.53
2022-12-22T22:29:49.372Z,3.70
2022-12-22T22:32:16.628Z,2.88
2022-12-22T22:34:49.283Z,3.60
2022-12-22T22:37:15.596Z,3.22
2022-12-22T22:39:42.878Z,3.60
2022-12-22T22:42:09.911Z,3.05
2022-12-22T22:44:36.627Z,3.55
2022-12-22T22:47:03.416Z,2.88
2022-12-22T22:49:29.761Z,3.40
2022-12-22T22:51:56.370Z,7.22
2022-12-22T22:54:22.691Z,3.90
2022-12-22T22:56:49.405Z,6.00
2022-12-22T22:59:15.952Z,3.80
2022-12-22T23:01:42.322Z,3.50
2022-12-22T23:04:09.054Z,3.40
2022-12-22T23:06:35.548Z,3.72
2022-12-22T23:09:05.407Z,3.58
2022-12-22T23:11:31.722Z,3.85
2022-12-22T23:13:58.150Z,3.55
2022-12-22T23:16:30.873Z,3.30
2022-12-22T23:19:02.197Z,3.08
2022-12-22T23:21:28.517Z,3.20
2022-12-22T23:23:58.340Z,18.80
2022-12-22T23:26:25.564Z,10.15
2022-12-22T23:28:53.816Z,3.83
2022-12-22T23:31:23.041Z,3.97
2022-12-22T23:33:49.746Z,3.13
2022-12-22T23:36:16.263Z,3.40
2022-12-22T23:38:45.759Z,3.92
2022-12-22T23:41:13.271Z,3.85
2022-12-22T23:43:40.072Z,2.90
2022-12-22T23:46:13.769Z,3.65
2022-12-22T23:48:42.564Z,3.90
2022-12-22T23:51:10.955Z,3.60
2022-12-22T23:53:38.780Z,3.25
2022-12-22T23:56:07.183Z,3.20
2022-12-22T23:58:33.756Z,4.18
